Thorsby, Alabama
Current Conditions -  °F | °C
As of 12:53 PM on Thursday 18 Dec 2014 (Local Time) from KEET Reporting Station
Overcast Overcast  
Wind Chill: 52°   Ceiling: 5500
Heat Index: 52°   Visibility: 10mi
Dew Point: 30°   Wind: 0mph
Humidity: 43%   Direction: NA
Pressure: 30.15"   Gusts: NA
Location:  32.92°N, 86.72°W
Report Text: KEET 181853Z AUTO 00000KT 10SM OVC055 11/M01 A3015 RMK AO2 SLP208 T01111011
Loading
Personal Weather Stations






























Interactive Weather Map New forecast layout! Learn more

10-Day Weather Forecast

Advertisements
Track Severe Weather on mobile